Alamogordo White Sands Regional Airport Alamogordo US
ICAO: KALM
IATA: ALM
Category: Medium
Scheduled Services: Yes

Elevation: 4200 ft
TransAlt. 18000 ft.

Airport Communications:
HOLLOMAN APP:120.6
AWOS 3:127.825
HOLLOMAN DEP:128.1
ALBUQUERQUE RDO:122.15
CTAF/UNICOM:122.8

KALM Zoom In..

If you have problems with the map follow the link
https://www.worldairports.se/pages/airport.php?
ICAO=KALM

Runways:

(A) RW 03 length 7005 ft width 150 ft
---- / hdg 35

(B) RW 16 length 3549 ft width 190 ft
---- / hdg 163

(C) RW 21 length 7005 ft width 150 ft
---- / hdg 215

(D) RW 34 length 3549 ft width 190 ft
---- / hdg 343

Location; KALM
Day. 16 / Time. 02.55 Zulu
* Altimeter: 30.18
* Temperature: 05° c. 41°f.
* Wind from: 040° Speed 05 kn.
Dewpoint: -08° c.
Visibility: 10 Statute Miles.
Clouds: Clear (automated report).

KALM 160255Z AUTO 04005KT 10SM CLR 05/M08 A3018 RMK AO2


Wind From 040°
Speed 05 kn.

 
 
jpsmedia.com for Web Design worldairports.se 2018   terms of use